Terminal Aerodrome Forecast
Issued by NWS Pueblo, CO

Home | Current Version | Previous Version | Text Only | Print | Product List | Glossary On
Versions: 1 2 3 4 5 6 7 8 9 10 11 12 13 14 15 16 17 18 19 20 21 22 23
000
FTUS45 KPUB 280540
TAFALS
TAF
KALS 280540Z 2806/2906 23007KT P6SM SCT100 SCT150
     FM281600 34007KT P6SM SCT050 BKN120
     FM281800 01007KT P6SM VCSH SCT050 BKN080
     FM282100 34008KT P6SM VCTS SCT060CB SCT140
     FM290100 04007KT P6SM SCT100 SCT140=

USA.gov is the U.S. government's official web portal to all federal, state and local government web resources and services.